sensor_id;sensor_type;location;lat;lon;timestamp;pressure;altitude;pressure_sealevel;temperature;humidity
11542;BME280;5827;49.482;7.716;2022-09-21T00:00:20;99656.59;;;9.86;100.00
11542;BME280;5827;49.482;7.716;2022-09-21T00:02:21;99657.25;;;9.82;100.00
11542;BME280;5827;49.482;7.716;2022-09-21T00:04:23;99663.03;;;9.79;100.00
11542;BME280;5827;49.482;7.716;2022-09-21T00:06:29;99663.25;;;9.77;100.00
11542;BME280;5827;49.482;7.716;2022-09-21T00:08:31;99652.41;;;9.65;100.00
11542;BME280;5827;49.482;7.716;2022-09-21T00:10:32;99659.84;;;9.63;100.00
11542;BME280;5827;49.482;7.716;2022-09-21T00:12:35;99662.09;;;9.60;100.00
11542;BME280;5827;49.482;7.716;2022-09-21T00:14:37;99658.41;;;9.61;100.00
11542;BME280;5827;49.482;7.716;2022-09-21T00:16:40;99660.03;;;9.62;100.00
11542;BME280;5827;49.482;7.716;2022-09-21T00:18:42;99660.47;;;9.59;100.00
11542;BME280;5827;49.482;7.716;2022-09-21T00:20:44;99654.94;;;9.54;100.00
11542;BME280;5827;49.482;7.716;2022-09-21T00:22:46;99648.97;;;9.52;100.00
11542;BME280;5827;49.482;7.716;2022-09-21T00:24:47;99667.13;;;9.50;100.00
11542;BME280;5827;49.482;7.716;2022-09-21T00:26:49;99658.28;;;9.49;100.00
11542;BME280;5827;49.482;7.716;2022-09-21T00:28:53;99659.50;;;9.47;100.00
11542;BME280;5827;49.482;7.716;2022-09-21T00:30:54;99658.75;;;9.39;100.00
11542;BME280;5827;49.482;7.716;2022-09-21T00:32:56;99662.06;;;9.35;100.00
11542;BME280;5827;49.482;7.716;2022-09-21T00:34:58;99660.59;;;9.32;100.00
11542;BME280;5827;49.482;7.716;2022-09-21T00:37:02;99659.81;;;9.25;100.00
11542;BME280;5827;49.482;7.716;2022-09-21T00:39:03;99656.31;;;9.25;100.00
11542;BME280;5827;49.482;7.716;2022-09-21T00:41:06;99671.94;;;9.28;100.00
11542;BME280;5827;49.482;7.716;2022-09-21T00:43:13;99664.34;;;9.25;100.00
11542;BME280;5827;49.482;7.716;2022-09-21T00:45:16;99664.97;;;9.20;100.00
11542;BME280;5827;49.482;7.716;2022-09-21T00:47:25;99662.47;;;9.25;100.00
11542;BME280;5827;49.482;7.716;2022-09-21T00:49:28;99658.16;;;9.24;100.00
11542;BME280;5827;49.482;7.716;2022-09-21T00:51:30;99661.66;;;9.25;100.00
11542;BME280;5827;49.482;7.716;2022-09-21T00:53:31;99666.44;;;9.16;100.00
11542;BME280;5827;49.482;7.716;2022-09-21T00:55:37;99666.88;;;9.13;100.00
11542;BME280;5827;49.482;7.716;2022-09-21T00:57:42;99665.00;;;9.13;100.00
11542;BME280;5827;49.482;7.716;2022-09-21T00:59:44;99670.53;;;9.19;100.00
11542;BME280;5827;49.482;7.716;2022-09-21T01:01:47;99667.69;;;9.13;100.00
11542;BME280;5827;49.482;7.716;2022-09-21T01:03:50;99671.00;;;9.02;100.00
11542;BME280;5827;49.482;7.716;2022-09-21T01:05:52;99666.69;;;9.01;100.00
11542;BME280;5827;49.482;7.716;2022-09-21T01:07:55;99665.28;;;8.99;100.00
11542;BME280;5827;49.482;7.716;2022-09-21T01:10:02;99668.13;;;8.97;100.00
11542;BME280;5827;49.482;7.716;2022-09-21T01:12:15;99667.34;;;8.90;100.00
11542;BME280;5827;49.482;7.716;2022-09-21T01:14:29;99670.44;;;8.87;100.00
11542;BME280;5827;49.482;7.716;2022-09-21T01:16:40;99674.78;;;8.81;100.00
11542;BME280;5827;49.482;7.716;2022-09-21T01:18:51;99665.72;;;8.82;100.00
11542;BME280;5827;49.482;7.716;2022-09-21T01:21:21;99666.34;;;8.84;100.00
11542;BME280;5827;49.482;7.716;2022-09-21T01:23:44;99658.34;;;8.84;100.00
11542;BME280;5827;49.482;7.716;2022-09-21T01:25:59;99668.63;;;8.81;100.00
11542;BME280;5827;49.482;7.716;2022-09-21T01:28:07;99667.16;;;8.78;100.00
11542;BME280;5827;49.482;7.716;2022-09-21T01:30:16;99664.94;;;8.69;100.00
11542;BME280;5827;49.482;7.716;2022-09-21T01:32:22;99661.63;;;8.73;100.00
11542;BME280;5827;49.482;7.716;2022-09-21T01:34:29;99668.84;;;8.73;100.00
11542;BME280;5827;49.482;7.716;2022-09-21T01:36:35;99668.84;;;8.73;100.00
11542;BME280;5827;49.482;7.716;2022-09-21T01:38:41;99668.63;;;8.74;100.00
11542;BME280;5827;49.482;7.716;2022-09-21T01:40:49;99671.09;;;8.69;100.00
11542;BME280;5827;49.482;7.716;2022-09-21T01:42:53;99667.81;;;8.67;100.00
11542;BME280;5827;49.482;7.716;2022-09-21T01:44:58;99663.91;;;8.70;100.00
11542;BME280;5827;49.482;7.716;2022-09-21T01:47:06;99666.19;;;8.66;100.00
11542;BME280;5827;49.482;7.716;2022-09-21T01:49:12;99666.41;;;8.58;100.00
11542;BME280;5827;49.482;7.716;2022-09-21T01:51:17;99670.72;;;8.52;100.00
11542;BME280;5827;49.482;7.716;2022-09-21T01:53:23;99668.06;;;8.52;100.00
11542;BME280;5827;49.482;7.716;2022-09-21T01:55:32;99669.09;;;8.45;100.00
11542;BME280;5827;49.482;7.716;2022-09-21T01:57:39;99668.28;;;8.44;100.00
11542;BME280;5827;49.482;7.716;2022-09-21T01:59:48;99659.41;;;8.50;100.00
11542;BME280;5827;49.482;7.716;2022-09-21T02:01:53;99670.72;;;8.46;100.00
11542;BME280;5827;49.482;7.716;2022-09-21T02:04:03;99677.50;;;8.42;100.00
11542;BME280;5827;49.482;7.716;2022-09-21T02:06:08;99665.56;;;8.31;100.00
11542;BME280;5827;49.482;7.716;2022-09-21T02:08:11;99670.91;;;8.31;100.00
11542;BME280;5827;49.482;7.716;2022-09-21T02:10:17;99666.41;;;8.18;100.00
11542;BME280;5827;49.482;7.716;2022-09-21T02:12:21;99673.19;;;8.21;100.00
11542;BME280;5827;49.482;7.716;2022-09-21T02:14:24;99676.47;;;8.16;100.00
11542;BME280;5827;49.482;7.716;2022-09-21T02:16:33;99672.38;;;8.20;100.00
11542;BME280;5827;49.482;7.716;2022-09-21T02:18:42;99671.72;;;8.18;100.00
11542;BME280;5827;49.482;7.716;2022-09-21T02:20:52;99670.31;;;8.15;100.00
11542;BME280;5827;49.482;7.716;2022-09-21T02:23:02;99671.75;;;8.11;100.00
11542;BME280;5827;49.482;7.716;2022-09-21T02:25:09;99669.06;;;8.11;100.00
11542;BME280;5827;49.482;7.716;2022-09-21T02:27:22;99670.31;;;8.15;100.00
11542;BME280;5827;49.482;7.716;2022-09-21T02:29:36;99668.66;;;8.14;100.00
11542;BME280;5827;49.482;7.716;2022-09-21T02:31:46;99667.00;;;8.13;100.00
11542;BME280;5827;49.482;7.716;2022-09-21T02:33:54;99670.09;;;8.10;100.00
11542;BME280;5827;49.482;7.716;2022-09-21T02:36:04;99657.56;;;7.98;100.00
11542;BME280;5827;49.482;7.716;2022-09-21T02:38:10;99663.31;;;8.08;100.00
11542;BME280;5827;49.482;7.716;2022-09-21T02:40:22;99660.22;;;8.04;100.00
11542;BME280;5827;49.482;7.716;2022-09-21T02:42:27;99663.94;;;8.03;100.00
11542;BME280;5827;49.482;7.716;2022-09-21T02:44:34;99662.69;;;8.06;100.00
11542;BME280;5827;49.482;7.716;2022-09-21T02:46:40;99673.56;;;8.04;100.00
11542;BME280;5827;49.482;7.716;2022-09-21T02:48:46;99670.31;;;8.02;100.00
11542;BME280;5827;49.482;7.716;2022-09-21T02:50:49;99663.72;;;7.98;100.00
11542;BME280;5827;49.482;7.716;2022-09-21T02:52:53;99664.31;;;7.87;100.00
11542;BME280;5827;49.482;7.716;2022-09-21T02:54:56;99657.78;;;7.89;100.00
11542;BME280;5827;49.482;7.716;2022-09-21T02:56:58;99663.50;;;7.86;100.00
11542;BME280;5827;49.482;7.716;2022-09-21T02:59:02;99666.34;;;7.78;100.00
11542;BME280;5827;49.482;7.716;2022-09-21T03:01:05;99668.63;;;7.75;100.00
11542;BME280;5827;49.482;7.716;2022-09-21T03:03:16;99659.38;;;7.71;100.00
11542;BME280;5827;49.482;7.716;2022-09-21T03:05:18;99662.22;;;7.69;100.00
11542;BME280;5827;49.482;7.716;2022-09-21T03:07:19;99666.16;;;7.67;100.00
11542;BME280;5827;49.482;7.716;2022-09-21T03:09:22;99661.59;;;7.60;100.00
11542;BME280;5827;49.482;7.716;2022-09-21T03:11:24;99659.97;;;7.53;100.00
11542;BME280;5827;49.482;7.716;2022-09-21T03:13:25;99658.13;;;7.53;100.00
11542;BME280;5827;49.482;7.716;2022-09-21T03:15:27;99658.13;;;7.53;100.00
11542;BME280;5827;49.482;7.716;2022-09-21T03:17:28;99660.91;;;7.32;100.00
11542;BME280;5827;49.482;7.716;2022-09-21T03:19:30;99659.28;;;7.31;100.00
11542;BME280;5827;49.482;7.716;2022-09-21T03:21:31;99663.78;;;7.30;100.00
11542;BME280;5827;49.482;7.716;2022-09-21T03:23:33;99655.56;;;7.25;100.00
11542;BME280;5827;49.482;7.716;2022-09-21T03:25:36;99657.53;;;7.10;100.00
11542;BME280;5827;49.482;7.716;2022-09-21T03:27:38;99659.53;;;6.95;100.00
11542;BME280;5827;49.482;7.716;2022-09-21T03:29:40;99661.84;;;7.04;100.00
11542;BME280;5827;49.482;7.716;2022-09-21T03:31:41;99663.72;;;7.10;100.00
11542;BME280;5827;49.482;7.716;2022-09-21T03:33:43;99669.50;;;7.21;100.00
11542;BME280;5827;49.482;7.716;2022-09-21T03:35:46;99667.84;;;7.20;100.00
11542;BME280;5827;49.482;7.716;2022-09-21T03:37:48;99666.94;;;6.99;100.00
11542;BME280;5827;49.482;7.716;2022-09-21T03:39:50;99665.69;;;6.95;100.00
11542;BME280;5827;49.482;7.716;2022-09-21T03:41:53;99663.44;;;6.92;100.00
11542;BME280;5827;49.482;7.716;2022-09-21T03:43:56;99664.03;;;6.87;100.00
11542;BME280;5827;49.482;7.716;2022-09-21T03:45:57;99663.19;;;6.87;100.00
11542;BME280;5827;49.482;7.716;2022-09-21T03:48:00;99661.69;;;6.78;100.00
11542;BME280;5827;49.482;7.716;2022-09-21T03:50:02;99661.75;;;6.84;100.00
11542;BME280;5827;49.482;7.716;2022-09-21T03:52:04;99668.50;;;6.87;100.00
11542;BME280;5827;49.482;7.716;2022-09-21T03:54:05;99661.94;;;6.83;100.00
11542;BME280;5827;49.482;7.716;2022-09-21T03:56:07;99659.66;;;6.80;100.00
11542;BME280;5827;49.482;7.716;2022-09-21T03:58:09;99665.84;;;6.87;100.00
11542;BME280;5827;49.482;7.716;2022-09-21T04:00:12;99667.47;;;6.81;100.00
11542;BME280;5827;49.482;7.716;2022-09-21T04:02:13;99666.03;;;6.79;100.00
11542;BME280;5827;49.482;7.716;2022-09-21T04:04:15;99669.44;;;6.73;100.00
11542;BME280;5827;49.482;7.716;2022-09-21T04:06:17;99678.47;;;6.72;100.00
11542;BME280;5827;49.482;7.716;2022-09-21T04:08:18;99667.00;;;6.71;100.00
11542;BME280;5827;49.482;7.716;2022-09-21T04:10:21;99669.22;;;6.68;100.00
11542;BME280;5827;49.482;7.716;2022-09-21T04:12:25;99672.28;;;6.65;100.00
11542;BME280;5827;49.482;7.716;2022-09-21T04:14:28;99668.59;;;6.66;100.00
11542;BME280;5827;49.482;7.716;2022-09-21T04:16:30;99670.84;;;6.69;100.00
11542;BME280;5827;49.482;7.716;2022-09-21T04:18:32;99675.56;;;6.67;100.00
11542;BME280;5827;49.482;7.716;2022-09-21T04:20:33;99676.38;;;6.67;100.00
11542;BME280;5827;49.482;7.716;2022-09-21T04:22:35;99683.94;;;6.63;100.00
11542;BME280;5827;49.482;7.716;2022-09-21T04:24:36;99673.94;;;6.66;100.00
11542;BME280;5827;49.482;7.716;2022-09-21T04:26:40;99680.03;;;6.59;100.00
11542;BME280;5827;49.482;7.716;2022-09-21T04:28:41;99675.94;;;6.63;100.00
11542;BME280;5827;49.482;7.716;2022-09-21T04:30:44;99674.91;;;6.58;100.00
11542;BME280;5827;49.482;7.716;2022-09-21T04:32:45;99682.84;;;6.51;100.00
11542;BME280;5827;49.482;7.716;2022-09-21T04:34:47;99680.38;;;6.50;100.00
11542;BME280;5827;49.482;7.716;2022-09-21T04:36:48;99684.06;;;6.49;100.00
11542;BME280;5827;49.482;7.716;2022-09-21T04:38:50;99686.34;;;6.52;100.00
11542;BME280;5827;49.482;7.716;2022-09-21T04:40:55;99689.00;;;6.52;100.00
11542;BME280;5827;49.482;7.716;2022-09-21T04:42:57;99688.56;;;6.48;100.00
11542;BME280;5827;49.482;7.716;2022-09-21T04:44:58;99689.75;;;6.46;100.00
11542;BME280;5827;49.482;7.716;2022-09-21T04:47:02;99693.78;;;6.35;100.00
11542;BME280;5827;49.482;7.716;2022-09-21T04:49:03;99698.97;;;6.43;100.00
11542;BME280;5827;49.482;7.716;2022-09-21T04:51:05;99696.09;;;6.45;100.00
11542;BME280;5827;49.482;7.716;2022-09-21T04:53:07;99700.16;;;6.41;100.00
11542;BME280;5827;49.482;7.716;2022-09-21T04:55:09;99701.16;;;6.33;100.00
11542;BME280;5827;49.482;7.716;2022-09-21T04:57:11;99699.06;;;6.28;100.00
11542;BME280;5827;49.482;7.716;2022-09-21T04:59:13;99700.13;;;6.34;100.00
11542;BME280;5827;49.482;7.716;2022-09-21T05:01:14;99698.91;;;6.36;100.00
11542;BME280;5827;49.482;7.716;2022-09-21T05:03:17;99695.25;;;6.38;100.00
11542;BME280;5827;49.482;7.716;2022-09-21T05:05:19;99707.91;;;6.35;100.00
11542;BME280;5827;49.482;7.716;2022-09-21T05:07:20;99714.63;;;6.31;100.00
11542;BME280;5827;49.482;7.716;2022-09-21T05:09:22;99708.47;;;6.31;100.00
11542;BME280;5827;49.482;7.716;2022-09-21T05:11:41;99707.88;;;6.29;100.00
11542;BME280;5827;49.482;7.716;2022-09-21T05:13:42;99717.69;;;6.28;100.00
11542;BME280;5827;49.482;7.716;2022-09-21T05:15:44;99709.88;;;6.27;100.00
11542;BME280;5827;49.482;7.716;2022-09-21T05:17:45;99714.63;;;6.31;100.00
11542;BME280;5827;49.482;7.716;2022-09-21T05:19:48;99710.69;;;6.27;100.00
11542;BME280;5827;49.482;7.716;2022-09-21T05:21:50;99720.47;;;6.20;100.00
11542;BME280;5827;49.482;7.716;2022-09-21T05:23:51;99717.31;;;6.10;100.00
11542;BME280;5827;49.482;7.716;2022-09-21T05:25:53;99717.50;;;6.08;100.00
11542;BME280;5827;49.482;7.716;2022-09-21T05:27:54;99722.66;;;6.10;100.00
11542;BME280;5827;49.482;7.716;2022-09-21T05:29:56;99717.50;;;6.08;100.00
11542;BME280;5827;49.482;7.716;2022-09-21T05:32:02;99714.78;;;6.02;100.00
11542;BME280;5827;49.482;7.716;2022-09-21T05:34:16;99716.88;;;6.06;100.00
11542;BME280;5827;49.482;7.716;2022-09-21T05:36:32;99717.25;;;6.03;100.00
11542;BME280;5827;49.482;7.716;2022-09-21T05:38:37;99717.25;;;6.03;100.00
11542;BME280;5827;49.482;7.716;2022-09-21T05:40:39;99722.06;;;5.93;100.00
11542;BME280;5827;49.482;7.716;2022-09-21T05:42:41;99726.19;;;5.96;100.00
11542;BME280;5827;49.482;7.716;2022-09-21T05:44:43;99720.69;;;5.97;100.00
11542;BME280;5827;49.482;7.716;2022-09-21T05:46:49;99727.63;;;5.98;100.00
11542;BME280;5827;49.482;7.716;2022-09-21T05:48:59;99725.44;;;6.02;100.00
11542;BME280;5827;49.482;7.716;2022-09-21T05:51:05;99727.63;;;5.98;100.00
11542;BME280;5827;49.482;7.716;2022-09-21T05:53:22;99731.56;;;6.02;100.00
11542;BME280;5827;49.482;7.716;2022-09-21T05:55:32;99737.72;;;6.03;100.00
11542;BME280;5827;49.482;7.716;2022-09-21T05:57:43;99733.84;;;6.05;100.00
11542;BME280;5827;49.482;7.716;2022-09-21T06:00:00;99742.34;;;6.16;100.00
11542;BME280;5827;49.482;7.716;2022-09-21T06:02:07;99741.88;;;6.12;100.00
11542;BME280;5827;49.482;7.716;2022-09-21T06:04:13;99736.06;;;6.23;100.00
11542;BME280;5827;49.482;7.716;2022-09-21T06:06:15;99742.00;;;6.25;100.00
11542;BME280;5827;49.482;7.716;2022-09-21T06:08:18;99751.63;;;6.26;100.00
11542;BME280;5827;49.482;7.716;2022-09-21T06:10:21;99751.84;;;6.25;100.00
11542;BME280;5827;49.482;7.716;2022-09-21T06:12:24;99751.47;;;6.28;100.00
11542;BME280;5827;49.482;7.716;2022-09-21T06:14:25;99750.69;;;6.34;100.00
11542;BME280;5827;49.482;7.716;2022-09-21T06:16:35;99752.56;;;6.40;100.00
11542;BME280;5827;49.482;7.716;2022-09-21T06:18:37;99752.91;;;6.52;100.00
11542;BME280;5827;49.482;7.716;2022-09-21T06:20:39;99760.53;;;6.61;100.00
11542;BME280;5827;49.482;7.716;2022-09-21T06:22:41;99758.81;;;6.75;100.00
11542;BME280;5827;49.482;7.716;2022-09-21T06:24:43;99759.94;;;6.87;100.00
11542;BME280;5827;49.482;7.716;2022-09-21T06:26:45;99763.66;;;7.00;100.00
11542;BME280;5827;49.482;7.716;2022-09-21T06:28:46;99767.94;;;6.94;100.00
11542;BME280;5827;49.482;7.716;2022-09-21T06:30:49;99755.78;;;6.85;100.00
11542;BME280;5827;49.482;7.716;2022-09-21T06:32:51;99763.44;;;6.95;100.00
11542;BME280;5827;49.482;7.716;2022-09-21T06:34:52;99759.66;;;7.10;100.00
11542;BME280;5827;49.482;7.716;2022-09-21T06:36:54;99767.53;;;7.32;100.00
11542;BME280;5827;49.482;7.716;2022-09-21T06:38:56;99756.72;;;7.40;100.00
11542;BME280;5827;49.482;7.716;2022-09-21T06:41:02;99755.75;;;7.54;100.00
11542;BME280;5827;49.482;7.716;2022-09-21T06:43:04;99760.50;;;7.59;100.00
11542;BME280;5827;49.482;7.716;2022-09-21T06:45:07;99767.28;;;7.61;100.00
11542;BME280;5827;49.482;7.716;2022-09-21T06:47:09;99768.09;;;7.69;100.00
11542;BME280;5827;49.482;7.716;2022-09-21T06:49:10;99762.66;;;7.90;100.00
11542;BME280;5827;49.482;7.716;2022-09-21T06:51:12;99764.53;;;8.03;100.00
11542;BME280;5827;49.482;7.716;2022-09-21T06:53:13;99768.66;;;8.12;100.00
11542;BME280;5827;49.482;7.716;2022-09-21T06:55:15;99770.09;;;8.21;100.00
11542;BME280;5827;49.482;7.716;2022-09-21T06:57:18;99774.84;;;8.32;100.00
11542;BME280;5827;49.482;7.716;2022-09-21T06:59:20;99777.94;;;8.43;100.00
11542;BME280;5827;49.482;7.716;2022-09-21T07:01:21;99775.69;;;8.46;100.00
11542;BME280;5827;49.482;7.716;2022-09-21T07:03:23;99772.00;;;8.60;100.00
11542;BME280;5827;49.482;7.716;2022-09-21T07:05:26;99775.72;;;8.66;100.00
11542;BME280;5827;49.482;7.716;2022-09-21T07:07:28;99772.63;;;8.76;100.00
11542;BME280;5827;49.482;7.716;2022-09-21T07:09:30;99775.28;;;8.89;100.00
11542;BME280;5827;49.482;7.716;2022-09-21T07:11:32;99772.59;;;8.96;100.00
11542;BME280;5827;49.482;7.716;2022-09-21T07:13:35;99767.47;;;8.94;100.00
11542;BME280;5827;49.482;7.716;2022-09-21T07:15:36;99767.44;;;9.14;100.00
11542;BME280;5827;49.482;7.716;2022-09-21T07:17:38;99767.59;;;9.32;100.00
11542;BME280;5827;49.482;7.716;2022-09-21T07:19:40;99773.72;;;9.46;100.00
11542;BME280;5827;49.482;7.716;2022-09-21T07:21:41;99774.13;;;9.50;100.00
11542;BME280;5827;49.482;7.716;2022-09-21T07:23:43;99779.47;;;9.43;100.00
11542;BME280;5827;49.482;7.716;2022-09-21T07:25:46;99773.06;;;9.51;100.00
11542;BME280;5827;49.482;7.716;2022-09-21T07:27:49;99771.41;;;9.56;100.00
11542;BME280;5827;49.482;7.716;2022-09-21T07:29:52;99764.84;;;9.52;100.00
11542;BME280;5827;49.482;7.716;2022-09-21T07:31:54;99772.00;;;9.65;100.00
11542;BME280;5827;49.482;7.716;2022-09-21T07:33:56;99768.84;;;9.81;100.00
11542;BME280;5827;49.482;7.716;2022-09-21T07:35:58;99764.66;;;9.92;100.00
11542;BME280;5827;49.482;7.716;2022-09-21T07:38:00;99772.00;;;10.03;100.00
11542;BME280;5827;49.482;7.716;2022-09-21T07:40:03;99771.75;;;10.11;100.00
11542;BME280;5827;49.482;7.716;2022-09-21T07:42:05;99775.59;;;10.22;100.00
11542;BME280;5827;49.482;7.716;2022-09-21T07:44:07;99767.72;;;10.34;100.00
11542;BME280;5827;49.482;7.716;2022-09-21T07:46:11;99767.06;;;10.38;100.00
11542;BME280;5827;49.482;7.716;2022-09-21T07:48:13;99768.41;;;10.54;100.00
11542;BME280;5827;49.482;7.716;2022-09-21T07:50:15;99768.97;;;10.63;100.00
11542;BME280;5827;49.482;7.716;2022-09-21T07:52:16;99762.91;;;10.42;100.00
11542;BME280;5827;49.482;7.716;2022-09-21T07:54:18;99764.25;;;10.58;100.00
11542;BME280;5827;49.482;7.716;2022-09-21T07:56:20;99760.13;;;10.81;100.00
11542;BME280;5827;49.482;7.716;2022-09-21T07:58:21;99758.47;;;10.80;100.00
11542;BME280;5827;49.482;7.716;2022-09-21T08:00:40;99759.47;;;11.04;100.00
11542;BME280;5827;49.482;7.716;2022-09-21T08:02:43;99753.78;;;11.18;100.00
11542;BME280;5827;49.482;7.716;2022-09-21T08:04:45;99755.66;;;11.18;100.00
11542;BME280;5827;49.482;7.716;2022-09-21T08:06:46;99757.88;;;11.21;100.00
11542;BME280;5827;49.482;7.716;2022-09-21T08:08:49;99755.47;;;11.31;100.00
11542;BME280;5827;49.482;7.716;2022-09-21T08:10:50;99755.28;;;11.33;100.00
11542;BME280;5827;49.482;7.716;2022-09-21T08:12:54;99758.00;;;11.44;100.00
11542;BME280;5827;49.482;7.716;2022-09-21T08:14:56;99757.44;;;11.42;100.00
11542;BME280;5827;49.482;7.716;2022-09-21T08:16:58;99749.22;;;11.56;100.00
11542;BME280;5827;49.482;7.716;2022-09-21T08:19:00;99754.19;;;11.70;100.00
11542;BME280;5827;49.482;7.716;2022-09-21T08:21:02;99752.47;;;11.76;100.00
11542;BME280;5827;49.482;7.716;2022-09-21T08:23:04;99749.91;;;11.81;100.00
11542;BME280;5827;49.482;7.716;2022-09-21T08:25:06;99749.88;;;11.88;100.00
11542;BME280;5827;49.482;7.716;2022-09-21T08:27:07;99754.59;;;12.04;100.00
11542;BME280;5827;49.482;7.716;2022-09-21T08:29:09;99759.28;;;12.09;100.00
11542;BME280;5827;49.482;7.716;2022-09-21T08:31:11;99758.38;;;12.15;100.00
11542;BME280;5827;49.482;7.716;2022-09-21T08:33:13;99753.84;;;12.27;100.00
11542;BME280;5827;49.482;7.716;2022-09-21T08:35:15;99755.81;;;12.32;100.00
11542;BME280;5827;49.482;7.716;2022-09-21T08:37:18;99759.38;;;12.44;100.00
11542;BME280;5827;49.482;7.716;2022-09-21T08:39:21;99755.06;;;12.55;100.00
11542;BME280;5827;49.482;7.716;2022-09-21T08:41:28;99759.84;;;12.53;100.00
11542;BME280;5827;49.482;7.716;2022-09-21T08:43:34;99761.75;;;12.87;100.00
11542;BME280;5827;49.482;7.716;2022-09-21T08:45:40;99769.69;;;13.17;100.00
11542;BME280;5827;49.482;7.716;2022-09-21T08:47:44;99765.13;;;13.18;100.00
11542;BME280;5827;49.482;7.716;2022-09-21T08:49:51;99767.97;;;13.23;100.00
11542;BME280;5827;49.482;7.716;2022-09-21T08:51:59;99759.75;;;13.18;100.00
11542;BME280;5827;49.482;7.716;2022-09-21T08:54:06;99757.41;;;13.21;100.00
11542;BME280;5827;49.482;7.716;2022-09-21T08:56:14;99760.94;;;13.34;100.00
11542;BME280;5827;49.482;7.716;2022-09-21T08:58:21;99762.22;;;13.43;100.00
11542;BME280;5827;49.482;7.716;2022-09-21T09:00:23;99765.78;;;13.60;97.16
11542;BME280;5827;49.482;7.716;2022-09-21T09:02:44;99761.91;;;13.68;97.19
11542;BME280;5827;49.482;7.716;2022-09-21T09:04:57;99780.94;;;13.90;88.58
11542;BME280;5827;49.482;7.716;2022-09-21T09:07:18;99783.03;;;14.16;86.40
11542;BME280;5827;49.482;7.716;2022-09-21T09:09:35;99803.81;;;14.33;78.26
11542;BME280;5827;49.482;7.716;2022-09-21T09:11:53;99785.75;;;14.33;80.71
11542;BME280;5827;49.482;7.716;2022-09-21T09:14:13;99789.69;;;14.42;80.67
11542;BME280;5827;49.482;7.716;2022-09-21T09:16:25;99785.41;;;14.58;79.80
11542;BME280;5827;49.482;7.716;2022-09-21T09:18:40;99785.00;;;14.83;82.27
11542;BME280;5827;49.482;7.716;2022-09-21T09:20:45;99787.69;;;14.83;77.69
11542;BME280;5827;49.482;7.716;2022-09-21T09:23:02;99782.81;;;14.80;78.99
11542;BME280;5827;49.482;7.716;2022-09-21T09:25:16;99793.94;;;14.67;75.86
11542;BME280;5827;49.482;7.716;2022-09-21T09:27:21;99783.44;;;14.87;75.79
11542;BME280;5827;49.482;7.716;2022-09-21T09:29:30;99785.34;;;14.87;76.46
11542;BME280;5827;49.482;7.716;2022-09-21T09:31:35;99784.31;;;15.10;75.08
11542;BME280;5827;49.482;7.716;2022-09-21T09:33:45;99780.63;;;15.16;75.62
11542;BME280;5827;49.482;7.716;2022-09-21T09:35:54;99776.97;;;15.05;77.56
11542;BME280;5827;49.482;7.716;2022-09-21T09:38:03;99786.09;;;15.21;75.86
11542;BME280;5827;49.482;7.716;2022-09-21T09:40:12;99789.88;;;15.20;75.33
11542;BME280;5827;49.482;7.716;2022-09-21T09:42:41;99795.25;;;15.20;70.38
11542;BME280;5827;49.482;7.716;2022-09-21T09:45:06;99786.81;;;15.33;72.10
11542;BME280;5827;49.482;7.716;2022-09-21T09:47:21;99785.13;;;15.10;71.69
11542;BME280;5827;49.482;7.716;2022-09-21T09:49:35;99783.22;;;15.28;71.54
11542;BME280;5827;49.482;7.716;2022-09-21T09:51:39;99787.06;;;15.32;70.52
11542;BME280;5827;49.482;7.716;2022-09-21T09:53:42;99784.78;;;15.23;70.29
11542;BME280;5827;49.482;7.716;2022-09-21T09:55:45;99781.09;;;15.30;71.74
11542;BME280;5827;49.482;7.716;2022-09-21T09:57:48;99783.84;;;15.35;71.75
11542;BME280;5827;49.482;7.716;2022-09-21T09:59:52;99772.41;;;15.44;73.71
11542;BME280;5827;49.482;7.716;2022-09-21T10:01:59;99774.41;;;15.54;72.64
11542;BME280;5827;49.482;7.716;2022-09-21T10:04:04;99773.50;;;15.48;72.83
11542;BME280;5827;49.482;7.716;2022-09-21T10:06:13;99783.00;;;15.51;68.16
11542;BME280;5827;49.482;7.716;2022-09-21T10:08:39;99783.25;;;15.49;68.25
11542;BME280;5827;49.482;7.716;2022-09-21T10:10:43;99777.25;;;15.64;69.02
11542;BME280;5827;49.482;7.716;2022-09-21T10:12:45;99766.09;;;15.61;72.51
11542;BME280;5827;49.482;7.716;2022-09-21T10:14:48;99766.00;;;15.72;69.54
11542;BME280;5827;49.482;7.716;2022-09-21T10:16:50;99770.19;;;15.63;69.08
11542;BME280;5827;49.482;7.716;2022-09-21T10:18:54;99763.84;;;15.96;68.48
11542;BME280;5827;49.482;7.716;2022-09-21T10:21:00;99762.44;;;15.67;68.98
11542;BME280;5827;49.482;7.716;2022-09-21T10:23:02;99758.78;;;15.78;70.96
11542;BME280;5827;49.482;7.716;2022-09-21T10:25:05;99764.09;;;15.95;69.01
11542;BME280;5827;49.482;7.716;2022-09-21T10:27:13;99760.78;;;15.88;68.31
11542;BME280;5827;49.482;7.716;2022-09-21T10:29:17;99757.31;;;15.92;69.73
11542;BME280;5827;49.482;7.716;2022-09-21T10:31:22;99751.63;;;15.94;69.84
11542;BME280;5827;49.482;7.716;2022-09-21T10:33:24;99757.94;;;15.99;67.50
11542;BME280;5827;49.482;7.716;2022-09-21T10:35:26;99757.69;;;15.79;67.28
11542;BME280;5827;49.482;7.716;2022-09-21T10:37:29;99756.38;;;15.82;67.85
11542;BME280;5827;49.482;7.716;2022-09-21T10:39:33;99762.34;;;15.84;67.32
11542;BME280;5827;49.482;7.716;2022-09-21T10:41:36;99753.84;;;15.97;68.49
11542;BME280;5827;49.482;7.716;2022-09-21T10:43:41;99754.53;;;16.09;68.83
11542;BME280;5827;49.482;7.716;2022-09-21T10:45:51;99758.94;;;16.20;69.05
11542;BME280;5827;49.482;7.716;2022-09-21T10:47:56;99749.28;;;16.02;69.39
11542;BME280;5827;49.482;7.716;2022-09-21T10:50:00;99745.91;;;15.85;67.84
11542;BME280;5827;49.482;7.716;2022-09-21T10:52:02;99739.88;;;16.05;69.82
11542;BME280;5827;49.482;7.716;2022-09-21T10:54:07;99749.16;;;16.14;70.15
11542;BME280;5827;49.482;7.716;2022-09-21T10:56:15;99758.94;;;15.93;65.98
11542;BME280;5827;49.482;7.716;2022-09-21T10:58:18;99749.81;;;15.99;67.63
11542;BME280;5827;49.482;7.716;2022-09-21T11:00:32;99741.59;;;15.89;67.36
11542;BME280;5827;49.482;7.716;2022-09-21T11:02:36;99740.69;;;16.06;68.12
11542;BME280;5827;49.482;7.716;2022-09-21T11:04:42;99751.00;;;16.36;67.04
11542;BME280;5827;49.482;7.716;2022-09-21T11:06:48;99751.63;;;16.80;67.28
11542;BME280;5827;49.482;7.716;2022-09-21T11:08:55;99761.25;;;17.03;62.64